Time;durP1;ratioP1;P1;durP2;ratioP2;P2;SDS_P1;SDS_P2;PMS_P1;PMS_P2;Temp;Humidity;BMP_temperature;BMP_pressure;BME280_temperature;BME280_humidity;BME280_pressure;Samples;Min_cycle;Max_cycle;Signal;HPM_P1;HPM_P2
2022/09/16 00:04:22;;;;;;;6.63;4.00;;;15.60;99.90;;;;;;10458661;28;20049;-77
2022/09/16 00:09:24;;;;;;;7.50;3.90;;;15.60;99.90;;;;;;10455921;28;20041;-77
2022/09/16 00:14:28;;;;;;;8.57;3.83;;;15.60;99.90;;;;;;10458591;28;20084;-77
2022/09/16 05:42:44;;;;;;;9.38;5.63;;;14.60;99.90;;;;;;10572508;27;20421;-76
2022/09/16 05:47:48;;;;;;;8.57;5.45;;;14.70;99.90;;;;;;10411114;28;20049;-78
2022/09/16 05:52:49;;;;;;;10.02;5.93;;;14.90;99.90;;;;;;10484599;28;20047;-78
2022/09/16 05:57:53;;;;;;;10.93;5.80;;;15.00;99.90;;;;;;10486619;28;20060;-78
2022/09/16 06:02:55;;;;;;;8.18;5.72;;;15.10;99.90;;;;;;10473539;28;20055;-77
2022/09/16 06:07:57;;;;;;;8.55;5.25;;;15.10;99.90;;;;;;10488858;28;20048;-76
2022/09/16 06:13:00;;;;;;;10.10;5.10;;;15.10;99.90;;;;;;10489554;28;20045;-76
2022/09/16 06:18:02;;;;;;;8.10;4.53;;;15.00;99.90;;;;;;10487983;28;20057;-75
2022/09/16 06:23:04;;;;;;;9.32;5.22;;;15.20;99.90;;;;;;10472471;28;20048;-78
2022/09/16 06:28:08;;;;;;;10.07;5.20;;;15.20;99.90;;;;;;10486452;28;20045;-78
2022/09/16 06:33:11;;;;;;;8.63;5.03;;;15.20;99.90;;;;;;10475569;28;20376;-77
2022/09/16 06:38:13;;;;;;;9.20;4.35;;;15.30;99.90;;;;;;10482165;28;20494;-77
2022/09/16 06:43:17;;;;;;;7.82;5.13;;;15.30;99.90;;;;;;10485795;28;20399;-75
2022/09/16 06:48:19;;;;;;;9.30;4.45;;;15.20;99.90;;;;;;10480076;28;20483;-78
2022/09/16 06:53:22;;;;;;;6.47;3.67;;;15.00;99.90;;;;;;10448738;28;20053;-78
2022/09/16 06:58:25;;;;;;;9.32;4.05;;;15.00;99.90;;;;;;10419764;28;20403;-78
2022/09/16 07:03:27;;;;;;;9.50;4.25;;;14.80;99.90;;;;;;10432126;28;20057;-77
2022/09/16 07:08:31;;;;;;;8.98;3.58;;;14.90;99.90;;;;;;10439417;28;20122;-77
2022/09/16 07:13:35;;;;;;;8.73;4.18;;;15.00;99.90;;;;;;10459885;28;20049;-78
2022/09/16 07:18:37;;;;;;;9.23;3.75;;;14.90;99.90;;;;;;10444997;28;20513;-78
2022/09/16 07:23:41;;;;;;;8.88;4.18;;;15.00;99.90;;;;;;10447678;28;20050;-76
2022/09/16 07:28:46;;;;;;;7.10;3.63;;;14.90;99.90;;;;;;10459815;28;20048;-78
2022/09/16 07:33:50;;;;;;;8.50;3.85;;;14.90;99.90;;;;;;10456887;28;20045;-78
2022/09/16 07:38:56;;;;;;;6.30;3.20;;;14.80;99.90;;;;;;10434610;28;20389;-77
2022/09/16 07:44:00;;;;;;;6.35;2.75;;;14.80;99.90;;;;;;10441018;28;20486;-77
2022/09/16 07:49:05;;;;;;;7.45;2.95;;;14.70;99.90;;;;;;10439322;28;20450;-76
2022/09/16 07:54:11;;;;;;;9.07;3.35;;;14.70;99.90;;;;;;10439706;28;20050;-78
2022/09/16 07:59:17;;;;;;;6.80;2.92;;;14.50;99.90;;;;;;10437208;28;20834;-78
2022/09/16 08:04:20;;;;;;;6.75;2.20;;;14.60;99.90;;;;;;10442700;28;20073;-78
2022/09/16 08:09:22;;;;;;;5.93;1.90;;;14.20;99.90;;;;;;10450774;28;20487;-78
2022/09/16 08:14:26;;;;;;;5.40;1.98;;;14.40;99.90;;;;;;10448188;28;20123;-78
2022/09/16 08:19:28;;;;;;;6.72;2.30;;;14.50;99.90;;;;;;10446951;28;20044;-76
2022/09/16 08:24:30;;;;;;;4.78;1.98;;;14.50;99.90;;;;;;10448961;28;20052;-79
2022/09/16 08:29:33;;;;;;;6.40;2.22;;;14.60;99.90;;;;;;10451216;28;20099;-78
2022/09/16 08:34:35;;;;;;;5.28;2.20;;;14.60;99.90;;;;;;10448430;28;20398;-77
2022/09/16 08:39:37;;;;;;;5.90;2.10;;;14.70;99.90;;;;;;10451341;28;20059;-78
2022/09/16 08:44:56;;;;;;;5.72;2.22;;;14.70;99.90;;;;;;10447243;28;20053;-78
2022/09/16 08:50:01;;;;;;;4.97;1.90;;;14.70;99.90;;;;;;10444083;28;20045;-77
2022/09/16 08:55:08;;;;;;;5.38;2.10;;;14.80;99.90;;;;;;10450008;28;20057;-78
2022/09/16 09:00:17;;;;;;;6.53;2.35;;;14.90;99.90;;;;;;10448432;28;20109;-75
2022/09/16 09:05:30;;;;;;;4.35;2.30;;;15.00;99.90;;;;;;10448838;28;20053;-78
2022/09/16 09:10:42;;;;;;;6.13;2.50;;;15.00;99.90;;;;;;10447935;28;20045;-78
2022/09/16 09:15:51;;;;;;;4.40;2.20;;;15.10;99.90;;;;;;10449325;28;20045;-79
2022/09/16 09:21:07;;;;;;;4.15;2.22;;;15.10;99.90;;;;;;10446919;28;20491;-78
2022/09/16 09:26:20;;;;;;;4.97;2.53;;;15.20;99.90;;;;;;10449290;28;20044;-77
2022/09/16 09:31:38;;;;;;;4.60;2.60;;;15.10;99.90;;;;;;10441930;28;20106;-80
2022/09/16 09:37:03;;;;;;;5.70;2.70;;;15.20;99.90;;;;;;10449980;28;20758;-77
2022/09/16 09:42:14;;;;;;;5.97;2.70;;;15.20;99.90;;;;;;10448698;28;20056;-79
2022/09/16 09:47:23;;;;;;;8.02;2.92;;;15.20;99.90;;;;;;10451030;28;20049;-78
2022/09/16 09:52:29;;;;;;;;;;;15.20;99.90;;;;;;10447547;28;20048;-76
2022/09/16 09:57:37;;;;;;;5.30;2.60;;;15.30;99.90;;;;;;10448529;28;19925;-77
2022/09/16 10:02:43;;;;;;;6.45;2.85;;;15.30;99.90;;;;;;10450685;28;20049;-79
2022/09/16 10:07:46;;;;;;;6.30;2.70;;;15.40;99.90;;;;;;10454740;28;20041;-77
2022/09/16 10:12:48;;;;;;;5.28;2.63;;;15.40;99.90;;;;;;10455068;28;20097;-79
2022/09/16 10:17:53;;;;;;;5.35;2.50;;;15.40;99.90;;;;;;10455088;28;20044;-77
2022/09/16 10:23:00;;;;;;;6.10;2.45;;;15.40;99.90;;;;;;10454982;28;20056;-76
2022/09/16 10:28:05;;;;;;;7.32;2.80;;;15.50;99.90;;;;;;10459973;28;20478;-78
2022/09/16 10:33:16;;;;;;;6.07;2.70;;;15.70;99.90;;;;;;10462162;28;20056;-77
2022/09/16 10:38:22;;;;;;;6.15;2.90;;;16.00;99.90;;;;;;10462847;28;20060;-77
2022/09/16 10:43:25;;;;;;;5.38;3.40;;;16.20;99.90;;;;;;10461766;28;20053;-78
2022/09/16 10:48:31;;;;;;;5.95;3.10;;;16.20;99.90;;;;;;10461206;28;20044;-78
2022/09/16 10:53:36;;;;;;;7.43;3.08;;;16.10;99.90;;;;;;10461787;28;20064;-78
2022/09/16 10:58:38;;;;;;;8.60;3.50;;;15.70;99.90;;;;;;10461374;28;20120;-78
2022/09/16 11:04:31;;;;;;;5.50;2.42;;;15.60;99.90;;;;;;10460961;28;20066;-78
2022/09/16 11:09:45;;;;;;;5.40;2.58;;;15.40;99.90;;;;;;10426402;28;20087;-76
2022/09/16 11:15:01;;;;;;;3.88;2.35;;;15.20;99.90;;;;;;10460850;28;20049;-79
2022/09/16 11:20:40;;;;;;;5.63;2.75;;;15.20;99.90;;;;;;10460824;28;20395;-78
2022/09/16 11:25:51;;;;;;;9.98;3.13;;;15.30;99.90;;;;;;10460288;28;20475;-79
2022/09/16 11:31:04;;;;;;;6.03;3.00;;;15.20;99.90;;;;;;10460251;28;20403;-77
2022/09/16 11:36:34;;;;;;;4.75;2.90;;;15.20;99.90;;;;;;10459727;28;20064;-79
2022/09/16 11:41:43;;;;;;;5.05;2.80;;;15.20;99.90;;;;;;10459831;28;20056;-78
2022/09/16 11:47:01;;;;;;;5.32;2.90;;;15.30;99.90;;;;;;10459753;28;20170;-77
2022/09/16 11:52:24;;;;;;;7.10;3.13;;;15.30;99.90;;;;;;10456368;28;20076;-79
2022/09/16 11:57:32;;;;;;;5.10;2.88;;;15.40;99.90;;;;;;10457779;28;20037;-77
2022/09/16 12:02:40;;;;;;;5.22;2.58;;;15.40;99.90;;;;;;10450481;28;20049;-78
2022/09/16 12:07:48;;;;;;;;;;;15.60;99.90;;;;;;10436981;28;20049;-80
2022/09/16 12:12:56;;;;;;;4.68;2.45;;;15.70;99.90;;;;;;10458135;28;19920;-79
2022/09/16 12:18:18;;;;;;;6.15;2.70;;;15.80;99.90;;;;;;10450149;28;20067;-78
2022/09/16 12:23:27;;;;;;;5.55;2.20;;;15.90;99.90;;;;;;10451941;28;20053;-77
2022/09/16 12:28:36;;;;;;;5.68;1.92;;;15.80;99.90;;;;;;10452455;28;20045;-79
2022/09/16 12:33:45;;;;;;;5.10;1.95;;;16.10;99.90;;;;;;10452955;28;20156;-77
2022/09/16 12:38:48;;;;;;;5.68;1.80;;;16.60;99.90;;;;;;10449419;28;20053;-79
2022/09/16 12:44:20;;;;;;;4.40;1.75;;;16.90;98.30;;;;;;10450691;28;20072;-79
2022/09/16 12:49:50;;;;;;;4.47;1.88;;;17.20;98.50;;;;;;10450024;28;20041;-79
2022/09/16 12:55:38;;;;;;;4.68;2.00;;;17.00;97.60;;;;;;10448637;28;20438;-78
2022/09/16 13:00:53;;;;;;;4.13;1.60;;;16.70;98.50;;;;;;10423679;28;20053;-77
2022/09/16 13:05:57;;;;;;;4.47;1.70;;;16.50;96.40;;;;;;10450296;28;20057;-79
2022/09/16 13:11:03;;;;;;;6.07;1.70;;;16.30;98.70;;;;;;10449879;28;20049;-79
2022/09/16 13:16:08;;;;;;;5.53;1.90;;;16.10;98.00;;;;;;10449749;28;20556;-78
2022/09/16 13:21:24;;;;;;;5.30;2.30;;;16.10;98.00;;;;;;10448769;28;20076;-78
2022/09/16 13:26:39;;;;;;;4.85;1.70;;;16.00;98.20;;;;;;10446658;28;20048;-79
2022/09/16 13:31:48;;;;;;;3.85;1.50;;;16.00;97.60;;;;;;10448740;28;20145;-78
2022/09/16 13:36:52;;;;;;;7.45;1.90;;;15.90;97.50;;;;;;10448743;28;20052;-79
2022/09/16 13:41:56;;;;;;;7.60;1.90;;;16.10;97.50;;;;;;10444197;28;20096;-78
2022/09/16 13:47:17;;;;;;;4.85;1.60;;;16.50;98.00;;;;;;10447661;28;20045;-79
2022/09/16 13:52:23;;;;;;;7.53;1.67;;;17.20;95.90;;;;;;10441773;28;20056;-77
2022/09/16 13:58:03;;;;;;;4.53;1.48;;;17.90;94.70;;;;;;10449711;28;20060;-79
2022/09/16 14:03:42;;;;;;;6.20;1.95;;;18.00;93.30;;;;;;10454194;28;20071;-78
2022/09/16 14:08:57;;;;;;;6.38;1.50;;;17.50;94.00;;;;;;10453927;28;20138;-79
2022/09/16 14:14:04;;;;;;;7.20;1.80;;;18.10;93.50;;;;;;10457009;28;20045;-78
2022/09/16 14:19:22;;;;;;;4.97;1.60;;;18.20;92.80;;;;;;10456940;28;20049;-78
2022/09/16 14:24:24;;;;;;;;;;;18.10;92.80;;;;;;10443497;28;20079;-77
2022/09/16 14:29:28;;;;;;;5.75;1.60;;;18.60;92.40;;;;;;10457051;28;19928;-80
2022/09/16 14:34:35;;;;;;;4.88;1.65;;;19.10;92.70;;;;;;10457520;28;20053;-77
2022/09/16 14:39:43;;;;;;;3.53;1.50;;;18.70;90.20;;;;;;10461278;28;20053;-79
2022/09/16 14:44:50;;;;;;;5.43;1.50;;;18.40;91.10;;;;;;10459190;28;20489;-78
2022/09/16 14:49:57;;;;;;;2.83;1.30;;;18.10;91.30;;;;;;10461462;28;20052;-78
2022/09/16 14:54:59;;;;;;;3.70;1.50;;;19.00;88.60;;;;;;10459493;28;20391;-77
2022/09/16 15:00:07;;;;;;;2.95;1.30;;;20.70;83.90;;;;;;10459246;28;20068;-78
2022/09/16 15:05:21;;;;;;;4.57;1.40;;;22.10;77.20;;;;;;10449269;28;20037;-77
2022/09/16 15:10:27;;;;;;;4.25;1.40;;;21.20;74.70;;;;;;10458228;28;20056;-78
2022/09/16 15:15:33;;;;;;;3.65;1.48;;;20.50;76.80;;;;;;10447672;28;20080;-77
2022/09/16 15:20:38;;;;;;;5.00;1.60;;;19.90;79.80;;;;;;10430305;28;20406;-79
2022/09/16 15:25:40;;;;;;;3.45;1.40;;;19.60;81.10;;;;;;10456310;28;20045;-76
2022/09/16 15:30:48;;;;;;;6.57;1.80;;;19.00;82.40;;;;;;10447203;28;20048;-78
2022/09/16 15:35:51;;;;;;;4.90;1.58;;;19.70;82.30;;;;;;10455126;28;20110;-77
2022/09/16 15:41:03;;;;;;;4.78;1.38;;;19.90;82.90;;;;;;10453317;28;20060;-80
2022/09/16 15:46:15;;;;;;;4.80;1.42;;;19.70;80.20;;;;;;10449162;28;20059;-79
2022/09/16 15:51:27;;;;;;;5.75;1.80;;;18.90;81.30;;;;;;10454408;28;20128;-80
2022/09/16 15:56:33;;;;;;;5.32;1.50;;;18.50;82.70;;;;;;10440780;28;20045;-78
2022/09/16 16:01:43;;;;;;;3.92;1.30;;;18.20;83.50;;;;;;10429528;28;20045;-80
2022/09/16 16:06:52;;;;;;;6.20;1.48;;;17.90;83.20;;;;;;10442232;28;20094;-80
2022/09/16 16:11:55;;;;;;;4.40;1.73;;;17.70;85.30;;;;;;10444597;28;20420;-78
2022/09/16 16:17:01;;;;;;;7.72;1.75;;;17.50;85.80;;;;;;10445703;28;20073;-79
2022/09/16 16:22:03;;;;;;;3.67;1.40;;;17.20;86.60;;;;;;10448659;28;20061;-78
2022/09/16 16:27:05;;;;;;;4.53;1.50;;;17.10;87.40;;;;;;10425400;28;20053;-80
2022/09/16 16:32:11;;;;;;;3.45;1.30;;;17.10;87.60;;;;;;10434692;28;20487;-82
2022/09/16 16:37:16;;;;;;;4.20;1.65;;;16.80;88.30;;;;;;10448926;28;20059;-80
2022/09/16 16:42:18;;;;;;;5.00;1.60;;;16.80;88.00;;;;;;10446615;28;20083;-79
2022/09/16 16:47:21;;;;;;;4.57;1.30;;;17.00;87.30;;;;;;10467904;28;20048;-80
2022/09/16 16:52:23;;;;;;;4.05;1.40;;;16.80;88.60;;;;;;10452296;28;20064;-77
2022/09/16 16:57:25;;;;;;;5.55;1.38;;;16.70;88.90;;;;;;10491738;28;20045;-78
2022/09/16 17:02:29;;;;;;;4.10;1.30;;;16.70;89.90;;;;;;10453632;28;20049;-76
2022/09/16 17:07:31;;;;;;;5.88;1.50;;;16.80;90.00;;;;;;10454638;28;20495;-81
2022/09/16 17:12:33;;;;;;;3.78;1.33;;;16.60;90.30;;;;;;10453747;28;20053;-76
2022/09/16 17:17:36;;;;;;;5.03;1.50;;;16.50;90.50;;;;;;10449930;28;20060;-79
2022/09/16 17:22:39;;;;;;;3.50;1.33;;;16.30;91.30;;;;;;10440292;28;20052;-76
2022/09/16 17:27:41;;;;;;;3.60;1.30;;;16.20;91.70;;;;;;10449200;28;20057;-79
2022/09/16 17:32:45;;;;;;;4.85;1.40;;;16.00;91.70;;;;;;10452821;28;20052;-77
2022/09/16 17:37:47;;;;;;;4.70;1.48;;;15.80;92.30;;;;;;10442554;28;20041;-76
2022/09/16 17:42:51;;;;;;;3.83;1.33;;;15.70;93.10;;;;;;10462146;28;20056;-78
2022/09/16 17:47:56;;;;;;;5.55;1.50;;;15.60;93.50;;;;;;10436686;28;20082;-79
2022/09/16 17:52:58;;;;;;;5.20;1.52;;;15.50;93.60;;;;;;10460101;28;20061;-75
2022/09/16 17:58:00;;;;;;;11.48;2.70;;;15.50;93.70;;;;;;10449539;28;20044;-77
2022/09/16 18:03:04;;;;;;;6.18;2.03;;;15.40;93.80;;;;;;10447442;28;20059;-77
2022/09/16 18:08:06;;;;;;;4.60;1.38;;;15.30;94.00;;;;;;10449364;28;20136;-77
2022/09/16 18:13:08;;;;;;;4.97;1.80;;;15.30;94.20;;;;;;10449830;28;20049;-78
2022/09/16 18:18:12;;;;;;;5.93;1.50;;;15.30;95.20;;;;;;10446093;28;20056;-78
2022/09/16 18:23:14;;;;;;;4.70;1.25;;;15.10;96.10;;;;;;10447222;28;20048;-78
2022/09/16 18:28:16;;;;;;;3.70;1.25;;;15.00;96.30;;;;;;10446995;28;20048;-78
2022/09/16 18:33:19;;;;;;;3.38;1.10;;;14.80;96.90;;;;;;10448962;28;20053;-78
2022/09/16 18:38:22;;;;;;;3.80;1.00;;;14.80;97.60;;;;;;10448088;28;20503;-78
2022/09/16 18:43:23;;;;;;;4.22;1.02;;;14.90;98.00;;;;;;10448946;28;20060;-77
2022/09/16 18:48:27;;;;;;;3.88;1.00;;;14.80;98.40;;;;;;10450365;28;20044;-77
2022/09/16 18:53:29;;;;;;;3.30;0.80;;;14.90;98.50;;;;;;10457527;28;20675;-78
2022/09/16 18:58:31;;;;;;;3.85;1.27;;;14.90;98.30;;;;;;10420106;28;20399;-77
2022/09/16 19:03:34;;;;;;;2.47;0.98;;;14.90;98.60;;;;;;10451395;28;20044;-78
2022/09/16 19:08:37;;;;;;;3.30;1.20;;;15.00;99.20;;;;;;10454206;28;20057;-78
2022/09/16 19:13:39;;;;;;;3.42;1.10;;;15.00;99.50;;;;;;10456309;28;20441;-76
2022/09/16 19:18:42;;;;;;;3.83;1.10;;;15.10;99.60;;;;;;10447780;28;20067;-75
2022/09/16 19:23:48;;;;;;;4.15;1.20;;;15.10;99.90;;;;;;10454259;28;20053;-78
2022/09/16 19:28:51;;;;;;;2.97;1.00;;;15.00;99.90;;;;;;10451402;28;20063;-79
2022/09/16 19:33:56;;;;;;;3.42;0.93;;;15.00;99.90;;;;;;10453595;28;20695;-75
2022/09/16 19:38:58;;;;;;;2.40;0.90;;;15.00;99.90;;;;;;10452901;28;20056;-76
2022/09/16 19:44:03;;;;;;;2.97;0.95;;;14.90;99.90;;;;;;10451562;28;20124;-75
2022/09/16 19:49:07;;;;;;;2.35;1.00;;;14.90;99.90;;;;;;10453361;28;20049;-76
2022/09/16 19:54:10;;;;;;;4.18;1.00;;;14.80;99.90;;;;;;10454846;28;20145;-80
2022/09/16 19:59:12;;;;;;;4.70;1.10;;;14.70;99.90;;;;;;10452022;28;20048;-76
2022/09/16 20:04:18;;;;;;;3.35;1.20;;;14.70;99.90;;;;;;10453018;28;20049;-77
2022/09/16 20:09:20;;;;;;;3.60;1.05;;;14.70;99.90;;;;;;10465309;28;20045;-79
2022/09/16 20:14:22;;;;;;;6.30;1.05;;;14.70;99.80;;;;;;10457108;28;20056;-77
2022/09/16 20:19:27;;;;;;;3.33;1.10;;;14.60;99.90;;;;;;10452432;28;20132;-76
2022/09/16 20:24:29;;;;;;;5.38;1.00;;;14.60;99.90;;;;;;10443164;28;20044;-78
2022/09/16 20:29:31;;;;;;;4.28;0.82;;;14.60;99.90;;;;;;10452431;28;20052;-78
2022/09/16 20:34:35;;;;;;;3.33;1.05;;;14.60;99.90;;;;;;10444538;28;20483;-78
2022/09/16 20:39:37;;;;;;;4.28;1.20;;;14.70;99.90;;;;;;10452807;28;20509;-78
2022/09/16 20:44:39;;;;;;;3.60;1.00;;;14.70;99.90;;;;;;10452123;28;20681;-78
2022/09/16 20:49:42;;;;;;;3.80;1.10;;;14.60;99.90;;;;;;10451652;28;20802;-78
2022/09/16 20:54:44;;;;;;;5.85;1.33;;;14.60;99.90;;;;;;10450358;28;20053;-79
2022/09/16 20:59:46;;;;;;;4.22;1.20;;;14.30;99.90;;;;;;10449022;28;20060;-77
2022/09/16 21:04:49;;;;;;;4.60;1.40;;;14.00;99.90;;;;;;10450576;28;20153;-78
2022/09/16 21:09:51;;;;;;;4.15;1.20;;;13.80;99.90;;;;;;10450098;28;20049;-78
2022/09/16 21:14:53;;;;;;;3.20;1.10;;;13.60;99.90;;;;;;10451265;28;20052;-79
2022/09/16 21:19:57;;;;;;;3.67;1.08;;;13.60;99.90;;;;;;10446133;28;20566;-78
2022/09/16 21:24:59;;;;;;;4.30;1.10;;;13.40;99.90;;;;;;10452128;28;20048;-78
2022/09/16 21:30:02;;;;;;;4.45;1.80;;;13.30;99.90;;;;;;10445545;28;20060;-78
2022/09/16 21:35:07;;;;;;;5.95;1.30;;;13.20;99.90;;;;;;10451216;28;20053;-77
2022/09/16 21:40:11;;;;;;;4.28;1.50;;;13.20;99.90;;;;;;10449424;28;20053;-78
2022/09/16 21:45:14;;;;;;;3.00;1.38;;;13.10;99.90;;;;;;10451749;28;20053;-78
2022/09/16 21:50:17;;;;;;;5.35;1.33;;;13.20;99.90;;;;;;10451018;28;20182;-78
2022/09/16 21:55:19;;;;;;;2.60;1.00;;;13.10;99.90;;;;;;10452794;28;20491;-77
2022/09/16 22:00:21;;;;;;;2.53;1.00;;;13.00;99.90;;;;;;10447848;28;20045;-77
2022/09/16 22:05:25;;;;;;;2.95;1.15;;;13.10;99.90;;;;;;10448950;28;20056;-78
2022/09/16 22:10:27;;;;;;;4.57;1.85;;;13.10;99.90;;;;;;10447517;28;20060;-78
2022/09/16 22:15:29;;;;;;;2.97;0.90;;;13.10;99.90;;;;;;10449204;28;20065;-76
2022/09/16 22:20:33;;;;;;;6.68;1.20;;;12.90;99.90;;;;;;10447630;28;20052;-79
2022/09/16 22:25:36;;;;;;;2.63;1.00;;;12.90;99.90;;;;;;10453073;28;20510;-79
2022/09/16 22:30:38;;;;;;;3.38;0.90;;;12.80;99.90;;;;;;10453457;28;20136;-78
2022/09/16 22:35:41;;;;;;;3.15;0.73;;;12.70;99.90;;;;;;10451018;28;20071;-78
2022/09/16 22:40:43;;;;;;;4.00;0.80;;;12.70;99.90;;;;;;10457027;28;20420;-79
2022/09/16 22:45:45;;;;;;;2.25;0.60;;;12.60;99.90;;;;;;10462237;28;20487;-78
2022/09/16 22:50:56;;;;;;;2.67;0.80;;;12.50;99.90;;;;;;10459177;28;20398;-79
2022/09/16 22:56:00;;;;;;;2.20;0.80;;;12.50;99.90;;;;;;10461520;28;20056;-76
2022/09/16 23:01:04;;;;;;;1.48;0.63;;;12.50;99.90;;;;;;10459203;28;20052;-78
2022/09/16 23:06:10;;;;;;;2.88;0.65;;;12.50;99.90;;;;;;10459943;28;20049;-78
2022/09/16 23:11:15;;;;;;;1.95;0.80;;;12.50;99.90;;;;;;10458881;28;20049;-79
2022/09/16 23:16:20;;;;;;;3.17;0.98;;;12.50;99.90;;;;;;10459878;28;20047;-78
2022/09/16 23:21:25;;;;;;;2.20;0.80;;;12.50;99.90;;;;;;10458773;28;20056;-78
2022/09/16 23:26:30;;;;;;;2.13;0.73;;;12.40;99.90;;;;;;10459399;28;20093;-78
2022/09/16 23:31:34;;;;;;;1.48;0.75;;;12.30;99.90;;;;;;10456062;28;20052;-77
2022/09/16 23:36:38;;;;;;;2.47;0.73;;;12.30;99.90;;;;;;10459702;28;20068;-78
2022/09/16 23:41:41;;;;;;;3.47;0.90;;;12.40;99.90;;;;;;10477609;28;20064;-79
2022/09/16 23:46:43;;;;;;;1.77;0.60;;;12.40;99.90;;;;;;10458270;28;20110;-77
2022/09/16 23:51:47;;;;;;;2.08;0.80;;;12.30;99.90;;;;;;10458335;28;20052;-78
2022/09/16 23:56:49;;;;;;;4.05;1.05;;;12.30;99.90;;;;;;10459144;28;20379;-79
